Kodiak, AK (99615)

12:49 PM AKST on December 06, 2016 (GMT -0900)
ASOS_HFM | | Change Station

Elev 111 ft 57.75 °N, 152.50 °W | Updated 49 minutes ago

Light Snow
Light Snow Mist
36 °F
Feels Like 28 °F
N
12
Wind Variable Wind from NW
Gusts 0.0 mph

Today
High -- | Low -- °F
--% Chance of Precip.
Yesterday
High -- | Low -- °F
Precip. -- in
Pressure 29.98 in
Visibility 3.0 miles
Clouds Scattered Clouds 500 ft
Mostly Cloudy 1400 ft
Overcast 2000 ft
Windchill 28 °F
Dew Point 32 °F
Humidity 87%
Rainfall in
Snow Depth Not available.
9:37 AM 4:24 PM
Waxing Crescent, 45% visible
METAR PADQ 062053Z 31010KT 3SM -SN BR SCT005 BKN014 OVC020 01/00 A2997 RMK AO2 SFC VIS 4 SLP150 P0001 60004 T00110000 51005 $
Pressure 29.98 in
Visibility 3.0 miles
Clouds Scattered Clouds 500 ft
Mostly Cloudy 1400 ft
Overcast 2000 ft
Windchill 28 °F
Dew Point 32 °F
Humidity 87%
Rainfall in
Snow Depth Not available.
9:37 AM 4:24 PM
Waxing Crescent, 45% visible
METAR PADQ 062053Z 31010KT 3SM -SN BR SCT005 BKN014 OVC020 01/00 A2997 RMK AO2 SFC VIS 4 SLP150 P0001 60004 T00110000 51005 $

10-Day Weather Forecast

Almanac

Astronomy

Dec. 06, 2016 Rise Set
Actual Time
Civil Twilight
Nautical Twilight
Astronomical Twilight
Moon
Length of Visible Light
Length of Day
Tomorrow will be .
, % of the Moon is Illuminated

Today's Extremes

State Highs State Lows

Community

WunderPhotos

Upload Photos

1,956,033 photos uploaded!

WunderBlog® & News

Nearby

Air Quality

  Air Quality AQ Index Pollutant
Not available.

Snow Depth

Station Depth Elevation

Earthquake Activity

City Distance Mag. Time & Date
Minimum magnitude displayed is 2.5.

Coastal Water Temperatures

Place Temperature

Stations

Nearby Weather Stations

Station Location Temp. Windchill Dew Point Humidity Wind Precip. Elev Updated Type
                   

Watches & Warnings

There are currently no watches in effect.